Terminal Aerodrome Forecast
Issued by NWS Jackson, KY

Home | Current Version | Previous Version | Text Only | Print | Product List | Glossary On
Versions: 1 2 3 4 5 6 7 8 9 10 11 12 13 14 15 16 17 18
000
FTUS43 KJKL 171635 AAA
TAFLOZ
TAF AMD
KLOZ 171635Z 1717/1812 VRB04KT 3SM SHRA BR SCT015 BKN035 OVC050
     FM171900 VRB06KT 2SM SHRA BR OVC015
     FM172300 VRB04KT 3SM BR VCSH OVC015
     FM180100 VRB06KT 6SM BR VCSH OVC008
     FM180800 VRB05KT P6SM BKN010=

USA.gov is the U.S. government's official web portal to all federal, state and local government web resources and services.